Flight Number: AVA2467 Duration: 2:30
Departure: Tucson Intl Airport (KTUS) at 17:00 Distance: 1058.14 Nm
Arrival: Seattle-Tacoma Intl Airport (KSEA) at 19:30 Equipment: B737

Weather Information
TUCSON INTERNATIONAL AIRPORT , AZ, United States (KTUS) 32-08N 110-57W 786M Jan 24, 2021 - 09:53 AM EST / 2021.01.24 1453 UTC
Wind: from the S (190 degrees) at 7 MPH (6 KT):0
Visibility: 10 mile(s):0
Sky conditions: overcast Precipitation last hour: 0.01 inches Temperature: 46.9 F (8.3 C) Dew Point: 39.9 F (4.4 C) Relative Humidity: 76% Pressure (altimeter): 29.85 in. Hg (1010 hPa) Pressure tendency: 0.02 inches (0.6 hPa) higher than three hours ago
ob: KTUS 241453Z 19006KT 10SM BKN041 OVC050 08/04 A2985 RMK AO2 RAB01E43 SLP090 P0001 60001 T00830044 53006 cycle: 15
Sunrise: 14:24 Sunset: 00:47 (UTC)

SEATTLE-TACOMA INTERNATIONAL AIRPORT , WA, United States (KSEA) 47-27N 122-19W 136M Jan 24, 2021 - 09:53 AM EST / 2021.01.24 1453 UTC
Wind: from the S (170 degrees) at 8 MPH (7 KT):0
Visibility: 10 mile(s):0
Sky conditions: overcast Weather: light rain Precipitation last hour: 0.01 inches Temperature: 39.0 F (3.9 C) Dew Point: 34.0 F (1.1 C) Relative Humidity: 81% Pressure (altimeter): 29.8 in. Hg (1009 hPa) Pressure tendency: 0.06 inches (2.2 hPa) lower than three hours ago
ob: KSEA 241453Z 17007KT 10SM -RA SCT023 OVC028 04/01 A2980 RMK AO2 SLP101 P0001 60002 T00390011 56022 cycle: 15
Sunrise: 15:47 Sunset: 00:55 (UTC)

TAF:2021/01/24 15:58 TAF AMD KSEA 241457Z 2415/2518 15006KT P6SM -RA OVC025 FM242000 18010KT P6SM SCT008 BKN015 OVC025

Previous Pireps for this route
Date Aircraft Flight time Fuel used Landing rate On time
2016-04-17B73702.5315810-291Yes
(pireps marked green are flown by you)

Route map